Time;durP1;ratioP1;P1;durP2;ratioP2;P2;SDS_P1;SDS_P2;PMS_P1;PMS_P2;Temp;Humidity;BMP_temperature;BMP_pressure;BME280_temperature;BME280_humidity;BME280_pressure;Samples;Min_cycle;Max_cycle;Signal;HPM_P1;HPM_P2
2021/09/07 00:02:06;;;;;;;13.63;10.20;;;;;;;;;;5034851;28;20391;-79
2021/09/07 00:04:32;;;;;;;15.77;11.43;;;;;;;;;;5034960;28;20413;-77
2021/09/07 00:06:59;;;;;;;12.47;10.10;;;;;;;;;;5017104;28;20481;-79
2021/09/07 00:09:25;;;;;;;15.90;10.50;;;;;;;;;;5034414;28;20469;-76
2021/09/07 00:11:51;;;;;;;15.10;10.97;;;;;;;;;;5034750;28;20391;-78
2021/09/07 00:14:17;;;;;;;14.33;10.57;;;;;;;;;;5034313;28;20417;-80
2021/09/07 00:16:43;;;;;;;16.93;12.00;;;;;;;;;;5034412;28;20379;-77
2021/09/07 00:19:09;;;;;;;15.83;10.73;;;;;;;;;;5033999;28;20432;-77
2021/09/07 00:21:35;;;;;;;23.20;11.43;;;;;;;;;;5034514;28;20437;-78
2021/09/07 00:24:01;;;;;;;17.47;12.77;;;;;;;;;;5034299;28;20697;-76
2021/09/07 00:26:27;;;;;;;15.07;10.33;;;;;;;;;;5034395;28;20398;-79
2021/09/07 00:28:54;;;;;;;18.47;11.83;;;;;;;;;;5033908;28;20399;-80
2021/09/07 00:31:20;;;;;;;16.97;11.57;;;;;;;;;;5034246;28;20439;-79
2021/09/07 00:33:46;;;;;;;18.40;12.83;;;;;;;;;;5034262;28;20883;-80
2021/09/07 00:36:12;;;;;;;22.10;12.30;;;;;;;;;;5034172;28;20438;-78
2021/09/07 00:38:38;;;;;;;17.17;11.07;;;;;;;;;;5033663;28;20890;-80
2021/09/07 00:41:06;;;;;;;16.57;11.70;;;;;;;;;;5033922;28;20469;-82
2021/09/07 00:43:32;;;;;;;15.40;11.03;;;;;;;;;;5034027;28;20417;-81
2021/09/07 00:45:58;;;;;;;18.63;12.27;;;;;;;;;;5033996;28;20890;-79
2021/09/07 00:48:24;;;;;;;15.23;11.77;;;;;;;;;;5016384;28;20392;-81
2021/09/07 00:50:50;;;;;;;17.33;11.50;;;;;;;;;;5033462;28;20479;-79
2021/09/07 00:53:16;;;;;;;23.97;12.60;;;;;;;;;;5033465;28;20417;-78
2021/09/07 00:55:46;;;;;;;18.67;12.90;;;;;;;;;;5033676;28;20383;-77
2021/09/07 00:58:13;;;;;;;15.57;11.97;;;;;;;;;;5033840;28;20455;-80
2021/09/07 01:00:39;;;;;;;17.80;11.40;;;;;;;;;;5033344;28;20395;-79
2021/09/07 01:03:05;;;;;;;14.97;11.33;;;;;;;;;;5033880;28;20453;-80
2021/09/07 01:05:31;;;;;;;19.47;12.13;;;;;;;;;;5033639;28;20405;-81
2021/09/07 01:07:57;;;;;;;12.87;10.50;;;;;;;;;;5033907;28;20441;-80
2021/09/07 01:10:24;;;;;;;20.00;12.07;;;;;;;;;;5033131;28;20439;-82
2021/09/07 01:12:50;;;;;;;15.70;11.80;;;;;;;;;;5033505;28;20391;-78
2021/09/07 01:15:16;;;;;;;14.00;11.30;;;;;;;;;;5033494;28;20894;-81
2021/09/07 01:17:42;;;;;;;14.00;10.73;;;;;;;;;;5015781;28;20900;-79
2021/09/07 01:20:09;;;;;;;20.97;12.50;;;;;;;;;;5033210;28;20526;-81
2021/09/07 01:22:35;;;;;;;19.93;12.10;;;;;;;;;;5033577;28;20902;-82
2021/09/07 01:25:01;;;;;;;14.83;10.87;;;;;;;;;;5033391;28;20559;-80
2021/09/07 01:27:27;;;;;;;17.17;11.37;;;;;;;;;;5033218;28;20478;-81
2021/09/07 01:29:53;;;;;;;16.30;11.80;;;;;;;;;;5032868;28;20984;-79
2021/09/07 01:32:19;;;;;;;17.77;11.10;;;;;;;;;;5033386;28;20401;-78
2021/09/07 01:34:45;;;;;;;15.10;11.23;;;;;;;;;;5033337;28;20410;-79
2021/09/07 01:37:11;;;;;;;15.27;10.90;;;;;;;;;;5033137;28;20441;-81
2021/09/07 01:39:38;;;;;;;16.57;11.93;;;;;;;;;;5032524;28;20435;-80
2021/09/07 01:42:05;;;;;;;18.20;11.60;;;;;;;;;;5033204;28;20383;-79
2021/09/07 01:44:32;;;;;;;16.67;12.37;;;;;;;;;;5033183;28;20911;-77
2021/09/07 01:46:58;;;;;;;17.13;12.80;;;;;;;;;;5033150;28;20388;-79
2021/09/07 01:49:24;;;;;;;17.60;11.53;;;;;;;;;;5032525;28;20469;-78
2021/09/07 01:51:51;;;;;;;16.73;11.03;;;;;;;;;;5033041;28;20470;-81
2021/09/07 01:54:19;;;;;;;16.30;12.03;;;;;;;;;;5033024;28;20444;-77
2021/09/07 01:56:45;;;;;;;17.83;11.37;;;;;;;;;;5033154;28;20883;-82
2021/09/07 01:59:11;;;;;;;15.40;11.57;;;;;;;;;;5032781;28;20442;-79
2021/09/07 02:01:37;;;;;;;15.47;12.47;;;;;;;;;;5032815;28;20383;-82
2021/09/07 02:04:03;;;;;;;18.90;12.50;;;;;;;;;;5032834;28;20388;-81
2021/09/07 02:06:29;;;;;;;13.60;12.07;;;;;;;;;;5036438;28;20413;-81
2021/09/07 02:08:55;;;;;;;15.87;12.03;;;;;;;;;;5036598;28;20391;-78
2021/09/07 02:11:21;;;;;;;18.60;12.80;;;;;;;;;;5037059;28;20445;-82
2021/09/07 02:13:47;;;;;;;18.13;12.60;;;;;;;;;;5003000;28;20490;-78
2021/09/07 02:16:13;;;;;;;18.93;13.23;;;;;;;;;;5036737;28;20416;-78
2021/09/07 02:18:39;;;;;;;18.63;14.30;;;;;;;;;;5036678;28;20444;-82
2021/09/07 02:21:05;;;;;;;19.57;14.37;;;;;;;;;;5036734;28;20750;-78
2021/09/07 02:23:31;;;;;;;21.30;14.07;;;;;;;;;;5036783;28;20387;-82
2021/09/07 02:25:57;;;;;;;22.83;13.80;;;;;;;;;;5036504;28;20898;-80
2021/09/07 02:28:23;;;;;;;18.77;13.77;;;;;;;;;;5036582;28;20511;-79
2021/09/07 02:30:49;;;;;;;17.00;12.57;;;;;;;;;;5036173;28;20532;-79
2021/09/07 02:33:15;;;;;;;16.37;12.67;;;;;;;;;;5036667;28;20413;-80
2021/09/07 02:35:41;;;;;;;18.10;12.70;;;;;;;;;;5036529;28;20415;-81
2021/09/07 02:38:07;;;;;;;17.73;12.60;;;;;;;;;;5036333;28;20408;-80
2021/09/07 02:40:33;;;;;;;16.30;12.10;;;;;;;;;;5036000;28;20452;-80
2021/09/07 02:42:59;;;;;;;20.80;14.80;;;;;;;;;;5036606;28;20438;-79
2021/09/07 02:45:25;;;;;;;22.70;14.60;;;;;;;;;;5018803;28;20515;-78
2021/09/07 02:47:52;;;;;;;23.23;15.17;;;;;;;;;;5036364;28;20575;-80
2021/09/07 02:50:18;;;;;;;20.27;14.27;;;;;;;;;;5035819;28;20815;-82
2021/09/07 02:52:45;;;;;;;18.50;13.80;;;;;;;;;;5018702;28;20736;-80
2021/09/07 02:55:11;;;;;;;22.17;14.13;;;;;;;;;;5036379;28;20826;-80
2021/09/07 02:57:37;;;;;;;21.37;15.17;;;;;;;;;;5036355;28;20395;-80
2021/09/07 03:00:04;;;;;;;21.83;15.77;;;;;;;;;;5035567;28;20448;-78
2021/09/07 03:02:30;;;;;;;21.93;15.40;;;;;;;;;;5036084;28;20445;-80
2021/09/07 03:04:56;;;;;;;19.93;13.40;;;;;;;;;;5018149;28;20472;-82
2021/09/07 03:07:22;;;;;;;20.67;14.73;;;;;;;;;;5018261;28;20421;-79
2021/09/07 03:09:48;;;;;;;23.03;15.87;;;;;;;;;;5035349;28;20508;-79
2021/09/07 03:12:14;;;;;;;31.00;16.87;;;;;;;;;;5035637;28;20496;-79
2021/09/07 03:14:40;;;;;;;21.93;15.67;;;;;;;;;;5035684;28;20463;-78
2021/09/07 03:17:05;;;;;;;24.50;16.43;;;;;;;;;;5034986;28;20409;-78
2021/09/07 03:19:31;;;;;;;24.43;15.40;;;;;;;;;;5035301;28;20509;-81
2021/09/07 03:21:57;;;;;;;24.03;17.23;;;;;;;;;;5035968;28;20392;-77
2021/09/07 03:24:23;;;;;;;23.67;16.63;;;;;;;;;;5018051;28;20882;-82
2021/09/07 03:26:49;;;;;;;22.93;16.40;;;;;;;;;;5035703;28;20551;-82
2021/09/07 03:29:15;;;;;;;24.30;14.93;;;;;;;;;;5035060;28;20955;-79
2021/09/07 03:31:41;;;;;;;29.17;15.93;;;;;;;;;;5018064;28;20443;-82
2021/09/07 03:34:07;;;;;;;24.53;17.17;;;;;;;;;;5035539;28;20405;-78
2021/09/07 03:36:33;;;;;;;24.40;16.17;;;;;;;;;;5017864;28;20874;-80
2021/09/07 03:38:59;;;;;;;23.50;15.47;;;;;;;;;;5017174;28;20925;-80
2021/09/07 03:41:25;;;;;;;26.23;16.07;;;;;;;;;;5035346;28;20428;-81
2021/09/07 03:43:51;;;;;;;23.13;16.13;;;;;;;;;;5035162;28;20922;-80
2021/09/07 03:46:17;;;;;;;27.50;15.90;;;;;;;;;;5017528;28;20838;-81
2021/09/07 03:48:44;;;;;;;23.73;14.20;;;;;;;;;;5034561;28;20413;-80
2021/09/07 03:51:10;;;;;;;22.63;16.20;;;;;;;;;;5017085;28;20473;-79
2021/09/07 03:53:36;;;;;;;18.90;15.23;;;;;;;;;;5035067;28;20484;-81
2021/09/07 03:56:02;;;;;;;24.67;15.00;;;;;;;;;;5035024;28;20392;-78
2021/09/07 03:58:28;;;;;;;23.03;14.07;;;;;;;;;;5034781;28;20390;-79
2021/09/07 04:00:54;;;;;;;23.50;14.93;;;;;;;;;;5034339;28;20436;-81
2021/09/07 04:03:20;;;;;;;27.13;17.00;;;;;;;;;;5034809;28;20471;-76
2021/09/07 04:05:48;;;;;;;26.47;19.10;;;;;;;;;;5034892;28;20442;-80
2021/09/07 04:08:14;;;;;;;27.90;17.77;;;;;;;;;;5034822;28;20748;-78
2021/09/07 04:10:40;;;;;;;24.93;16.63;;;;;;;;;;5034512;28;20551;-81
2021/09/07 04:13:06;;;;;;;22.53;15.77;;;;;;;;;;5034756;28;20427;-79
2021/09/07 04:15:32;;;;;;;24.33;16.70;;;;;;;;;;5034811;28;20392;-78
2021/09/07 04:17:58;;;;;;;19.53;14.60;;;;;;;;;;5034725;28;20409;-79
2021/09/07 04:20:24;;;;;;;24.60;15.70;;;;;;;;;;5034239;28;20937;-78
2021/09/07 04:22:51;;;;;;;21.97;15.17;;;;;;;;;;5034467;28;20817;-80
2021/09/07 04:25:17;;;;;;;23.43;15.00;;;;;;;;;;5034451;28;20413;-77
2021/09/07 04:27:43;;;;;;;20.90;14.90;;;;;;;;;;5034285;28;20413;-82
2021/09/07 04:30:10;;;;;;;21.20;14.87;;;;;;;;;;5032965;28;20563;-81
2021/09/07 04:32:36;;;;;;;21.03;13.87;;;;;;;;;;5034331;28;20773;-78
2021/09/07 04:35:02;;;;;;;23.73;16.03;;;;;;;;;;5034229;28;20424;-78
2021/09/07 04:37:28;;;;;;;21.57;15.50;;;;;;;;;;5034149;28;20409;-81
2021/09/07 04:39:54;;;;;;;25.07;15.93;;;;;;;;;;5033720;28;20461;-79
2021/09/07 04:42:20;;;;;;;25.80;15.70;;;;;;;;;;5034117;28;20451;-81
2021/09/07 04:44:47;;;;;;;34.33;19.70;;;;;;;;;;5016301;28;20483;-78
2021/09/07 04:47:14;;;;;;;27.93;18.30;;;;;;;;;;5033891;28;20531;-80
2021/09/07 04:49:40;;;;;;;32.10;17.97;;;;;;;;;;5033458;28;20559;-78
2021/09/07 04:52:06;;;;;;;27.50;19.07;;;;;;;;;;5034022;28;20409;-78
2021/09/07 04:54:32;;;;;;;29.33;18.57;;;;;;;;;;5016097;28;20424;-77
2021/09/07 04:56:58;;;;;;;29.83;18.20;;;;;;;;;;5033760;28;20413;-77
2021/09/07 04:59:24;;;;;;;27.57;17.87;;;;;;;;;;5033251;28;20468;-80
2021/09/07 05:01:50;;;;;;;26.93;17.80;;;;;;;;;;5015917;28;20425;-80
2021/09/07 05:04:16;;;;;;;26.10;18.33;;;;;;;;;;5016236;28;20624;-80
2021/09/07 05:06:42;;;;;;;29.70;18.03;;;;;;;;;;5033490;28;20499;-79
2021/09/07 05:09:08;;;;;;;26.20;18.23;;;;;;;;;;5033366;28;20437;-83
2021/09/07 05:11:34;;;;;;;31.37;18.93;;;;;;;;;;5033268;28;20464;-79
2021/09/07 05:14:00;;;;;;;24.83;17.53;;;;;;;;;;5032975;28;20409;-81
2021/09/07 05:16:26;;;;;;;21.03;16.10;;;;;;;;;;5033614;28;20448;-79
2021/09/07 05:18:52;;;;;;;26.03;16.80;;;;;;;;;;5015585;28;20453;-82
2021/09/07 05:21:18;;;;;;;29.10;17.17;;;;;;;;;;5015808;28;20421;-80
2021/09/07 05:23:44;;;;;;;25.47;15.17;;;;;;;;;;5033575;28;20425;-79
2021/09/07 05:26:10;;;;;;;29.20;19.00;;;;;;;;;;5033458;28;20812;-79
2021/09/07 05:28:36;;;;;;;29.37;19.07;;;;;;;;;;5021782;28;20425;-78
2021/09/07 05:31:02;;;;;;;21.13;16.13;;;;;;;;;;5052124;28;20499;-80
2021/09/07 05:33:28;;;;;;;27.77;19.20;;;;;;;;;;5051755;28;20408;-80
2021/09/07 05:35:55;;;;;;;29.73;19.43;;;;;;;;;;5052938;28;20404;-78
2021/09/07 05:38:21;;;;;;;27.53;18.87;;;;;;;;;;5035347;28;20398;-79
2021/09/07 05:40:47;;;;;;;29.90;18.93;;;;;;;;;;5052372;28;20513;-78
2021/09/07 05:43:13;;;;;;;25.27;18.40;;;;;;;;;;5035257;28;20439;-81
2021/09/07 05:45:39;;;;;;;30.27;20.43;;;;;;;;;;5043121;28;20421;-81
2021/09/07 05:48:05;;;;;;;29.70;20.13;;;;;;;;;;5038334;28;20489;-79
2021/09/07 05:50:31;;;;;;;29.47;18.33;;;;;;;;;;5032212;28;20446;-80
2021/09/07 05:52:57;;;;;;;27.13;17.77;;;;;;;;;;5043332;28;20396;-76
2021/09/07 05:55:23;;;;;;;29.07;19.67;;;;;;;;;;5040982;28;20868;-80
2021/09/07 05:57:52;;;;;;;29.93;21.23;;;;;;;;;;5032759;28;20416;-80
2021/09/07 06:00:18;;;;;;;24.00;18.70;;;;;;;;;;5032447;28;21055;-80
2021/09/07 06:02:45;;;;;;;22.77;18.60;;;;;;;;;;5015563;28;20503;-79
2021/09/07 06:05:11;;;;;;;26.70;19.00;;;;;;;;;;5033133;28;20408;-79
2021/09/07 06:07:37;;;;;;;28.70;19.00;;;;;;;;;;5032880;28;20417;-79
2021/09/07 06:10:04;;;;;;;22.33;17.50;;;;;;;;;;5032541;28;20534;-78
2021/09/07 06:12:30;;;;;;;28.07;18.03;;;;;;;;;;5015101;28;20420;-78
2021/09/07 06:14:55;;;;;;;27.47;17.50;;;;;;;;;;5033176;28;20421;-77
2021/09/07 06:17:21;;;;;;;34.90;18.60;;;;;;;;;;5033060;28;20760;-82
2021/09/07 06:19:47;;;;;;;26.37;17.40;;;;;;;;;;5033487;28;20436;-77
2021/09/07 06:22:13;;;;;;;26.43;18.40;;;;;;;;;;5032833;28;20856;-80
2021/09/07 06:24:39;;;;;;;26.23;18.03;;;;;;;;;;5032691;28;20395;-79
2021/09/07 06:27:05;;;;;;;24.07;17.10;;;;;;;;;;5032814;28;20795;-78
2021/09/07 06:29:31;;;;;;;26.47;17.97;;;;;;;;;;5032380;28;20411;-79
2021/09/07 06:31:57;;;;;;;22.53;17.20;;;;;;;;;;5032548;28;20934;-78
2021/09/07 06:34:27;;;;;;;23.17;18.23;;;;;;;;;;5032294;28;20533;-77
2021/09/07 06:36:54;;;;;;;29.30;17.37;;;;;;;;;;5032758;28;20410;-81
2021/09/07 06:39:20;;;;;;;24.67;16.90;;;;;;;;;;5032178;28;20492;-79
2021/09/07 06:41:46;;;;;;;22.73;17.80;;;;;;;;;;5032460;28;20479;-79
2021/09/07 06:44:12;;;;;;;26.23;18.90;;;;;;;;;;5032548;28;20432;-81
2021/09/07 06:46:38;;;;;;;23.70;17.43;;;;;;;;;;5032522;28;20446;-78
2021/09/07 06:49:05;;;;;;;25.97;18.47;;;;;;;;;;5032139;28;20505;-77
2021/09/07 06:51:31;;;;;;;28.33;17.67;;;;;;;;;;5014939;28;20435;-77
2021/09/07 06:53:57;;;;;;;23.77;16.37;;;;;;;;;;5035945;28;20459;-77
2021/09/07 06:56:23;;;;;;;26.00;15.67;;;;;;;;;;5036017;28;20388;-78
2021/09/07 06:58:49;;;;;;;21.80;16.00;;;;;;;;;;5035768;28;20451;-78
2021/09/07 07:01:15;;;;;;;21.13;15.57;;;;;;;;;;5035885;28;20428;-78
2021/09/07 07:03:41;;;;;;;27.47;18.30;;;;;;;;;;5036027;28;20405;-79
2021/09/07 07:06:07;;;;;;;27.43;18.40;;;;;;;;;;5035747;28;20434;-79
2021/09/07 07:08:33;;;;;;;29.53;17.37;;;;;;;;;;5035931;28;20482;-78
2021/09/07 07:10:59;;;;;;;27.10;17.80;;;;;;;;;;5035729;28;20454;-79
2021/09/07 07:13:25;;;;;;;26.10;16.87;;;;;;;;;;5035994;28;20386;-80
2021/09/07 07:15:51;;;;;;;27.87;18.87;;;;;;;;;;5035868;28;20401;-80
2021/09/07 07:18:18;;;;;;;29.20;17.87;;;;;;;;;;5035678;28;20441;-79
2021/09/07 07:20:44;;;;;;;27.33;17.40;;;;;;;;;;5035095;28;20429;-79
2021/09/07 07:23:10;;;;;;;25.47;16.30;;;;;;;;;;5035753;28;20424;-80
2021/09/07 07:25:36;;;;;;;21.90;18.13;;;;;;;;;;5035495;28;20387;-77
2021/09/07 07:28:02;;;;;;;21.13;16.60;;;;;;;;;;5035527;28;20409;-80
2021/09/07 07:30:28;;;;;;;22.00;17.60;;;;;;;;;;5034956;28;20485;-80
2021/09/07 07:32:54;;;;;;;26.90;17.00;;;;;;;;;;5018045;28;20391;-78
2021/09/07 07:35:21;;;;;;;21.00;16.67;;;;;;;;;;5035507;28;20828;-78
2021/09/07 07:37:47;;;;;;;21.30;16.73;;;;;;;;;;5035433;28;20443;-77
2021/09/07 07:40:13;;;;;;;30.87;17.47;;;;;;;;;;5034688;28;20448;-78
2021/09/07 07:42:39;;;;;;;24.83;17.00;;;;;;;;;;5035235;28;20474;-80
2021/09/07 07:45:05;;;;;;;23.67;17.90;;;;;;;;;;5035212;28;20405;-79
2021/09/07 07:47:31;;;;;;;21.60;15.40;;;;;;;;;;5035182;28;20421;-77
2021/09/07 07:49:58;;;;;;;27.33;17.70;;;;;;;;;;5034697;28;20461;-78
2021/09/07 07:52:24;;;;;;;22.83;17.03;;;;;;;;;;5017185;28;20465;-77
2021/09/07 07:54:50;;;;;;;21.50;16.50;;;;;;;;;;5035091;28;21005;-80
2021/09/07 07:57:17;;;;;;;27.93;17.50;;;;;;;;;;5001046;28;20434;-77
2021/09/07 07:59:43;;;;;;;21.10;16.17;;;;;;;;;;5016809;28;20983;-79
2021/09/07 08:02:09;;;;;;;24.23;16.73;;;;;;;;;;5034811;28;20495;-80
2021/09/07 08:04:35;;;;;;;21.93;16.57;;;;;;;;;;5034598;28;20515;-81
2021/09/07 08:07:01;;;;;;;21.10;17.07;;;;;;;;;;5034810;28;20384;-78
2021/09/07 08:09:29;;;;;;;25.33;18.30;;;;;;;;;;5034303;28;20433;-79
2021/09/07 08:11:55;;;;;;;22.30;17.27;;;;;;;;;;5034991;28;20459;-79
2021/09/07 08:14:21;;;;;;;18.60;15.23;;;;;;;;;;5034665;28;20804;-79
2021/09/07 08:16:47;;;;;;;24.13;16.67;;;;;;;;;;5034533;28;20390;-78
2021/09/07 08:19:13;;;;;;;21.90;16.83;;;;;;;;;;5034263;28;20435;-77
2021/09/07 08:21:39;;;;;;;31.40;16.67;;;;;;;;;;5034829;28;20392;-80
2021/09/07 08:24:05;;;;;;;21.20;16.37;;;;;;;;;;5034708;28;20405;-80
2021/09/07 08:26:31;;;;;;;25.77;17.10;;;;;;;;;;5034493;28;20405;-80
2021/09/07 08:28:57;;;;;;;21.40;16.33;;;;;;;;;;5016526;28;20395;-79
2021/09/07 08:31:23;;;;;;;22.93;16.80;;;;;;;;;;5034221;28;20535;-78
2021/09/07 08:33:49;;;;;;;21.40;15.83;;;;;;;;;;5016745;28;20472;-80
2021/09/07 08:36:15;;;;;;;20.90;16.10;;;;;;;;;;5016720;28;20502;-78
2021/09/07 08:38:41;;;;;;;25.43;17.27;;;;;;;;;;5033660;28;20416;-77
2021/09/07 08:41:07;;;;;;;21.30;16.50;;;;;;;;;;5033996;28;20432;-78
2021/09/07 08:43:34;;;;;;;21.00;16.73;;;;;;;;;;5034038;28;20498;-78
2021/09/07 08:46:00;;;;;;;21.00;15.40;;;;;;;;;;5034066;28;20448;-78
2021/09/07 08:48:27;;;;;;;21.73;16.93;;;;;;;;;;5033875;28;20501;-77
2021/09/07 08:50:54;;;;;;;24.07;16.87;;;;;;;;;;5033417;28;20468;-80
2021/09/07 08:53:21;;;;;;;19.87;16.87;;;;;;;;;;5033896;28;20587;-80
2021/09/07 08:55:47;;;;;;;26.57;17.03;;;;;;;;;;5016159;28;20423;-80
2021/09/07 08:58:13;;;;;;;21.87;16.20;;;;;;;;;;5033880;28;20412;-81
2021/09/07 09:00:39;;;;;;;21.77;16.67;;;;;;;;;;5033304;28;20441;-80
2021/09/07 09:03:12;;;;;;;24.73;16.83;;;;;;;;;;5033471;28;20417;-79
2021/09/07 09:05:42;;;;;;;22.40;16.67;;;;;;;;;;5033604;28;20486;-79
2021/09/07 09:08:16;;;;;;;21.63;15.90;;;;;;;;;;5033623;28;20459;-77
2021/09/07 09:10:43;;;;;;;22.53;16.30;;;;;;;;;;5033470;28;20460;-80
2021/09/07 09:13:10;;;;;;;20.13;15.93;;;;;;;;;;5033680;28;20419;-79
2021/09/07 09:15:36;;;;;;;28.17;18.30;;;;;;;;;;5033187;28;20832;-80
2021/09/07 09:18:10;;;;;;;21.53;17.57;;;;;;;;;;5033645;28;20433;-80
2021/09/07 09:20:37;;;;;;;23.67;17.70;;;;;;;;;;5033252;28;20429;-79
2021/09/07 09:23:03;;;;;;;24.00;18.27;;;;;;;;;;5033414;28;20474;-80
2021/09/07 09:25:37;;;;;;;23.87;17.57;;;;;;;;;;5033546;28;20757;-80
2021/09/07 09:28:29;;;;;;;25.53;17.70;;;;;;;;;;5033487;28;20412;-78
2021/09/07 09:30:56;;;;;;;21.30;17.10;;;;;;;;;;5029291;28;20487;-78
2021/09/07 09:33:26;;;;;;;24.17;18.37;;;;;;;;;;5033311;28;20507;-78
2021/09/07 09:35:53;;;;;;;22.17;16.80;;;;;;;;;;5033643;28;20398;-80
2021/09/07 09:38:21;;;;;;;26.60;17.67;;;;;;;;;;5033361;28;20905;-79
2021/09/07 09:40:57;;;;;;;21.33;16.97;;;;;;;;;;5032764;28;20448;-78
2021/09/07 09:43:32;;;;;;;25.80;17.10;;;;;;;;;;5033210;28;20420;-79
2021/09/07 09:46:15;;;;;;;25.63;16.93;;;;;;;;;;5033343;28;20436;-80
2021/09/07 09:48:41;;;;;;;20.67;16.70;;;;;;;;;;5032744;28;20496;-79
2021/09/07 09:51:07;;;;;;;22.50;16.10;;;;;;;;;;5032859;28;20618;-78
2021/09/07 09:53:34;;;;;;;20.03;15.70;;;;;;;;;;5033000;28;20803;-78
2021/09/07 09:56:01;;;;;;;21.03;16.20;;;;;;;;;;5015350;28;20909;-79
2021/09/07 09:58:27;;;;;;;21.67;16.57;;;;;;;;;;5032968;28;20416;-79
2021/09/07 10:00:54;;;;;;;16.73;14.23;;;;;;;;;;5032688;28;20805;-80
2021/09/07 10:03:22;;;;;;;21.70;15.30;;;;;;;;;;5032905;28;20408;-81
2021/09/07 10:05:48;;;;;;;16.63;14.50;;;;;;;;;;5033063;28;20448;-80
2021/09/07 10:08:15;;;;;;;16.70;13.73;;;;;;;;;;5033155;28;20789;-79
2021/09/07 10:10:53;;;;;;;15.97;14.20;;;;;;;;;;5032825;28;20476;-79
2021/09/07 10:13:20;;;;;;;20.23;14.47;;;;;;;;;;5032805;28;20759;-78
2021/09/07 10:16:10;;;;;;;15.47;13.10;;;;;;;;;;5032954;28;20753;-78
2021/09/07 10:18:46;;;;;;;17.17;13.90;;;;;;;;;;5032071;28;20436;-79
2021/09/07 10:22:57;;;;;;;16.47;14.70;;;;;;;;;;5015520;28;20444;-80
2021/09/07 10:24:01;;;;;;;15.90;13.70;;;;;;;;;;5033030;28;20421;-79
2021/09/07 10:26:40;;;;;;;15.93;13.50;;;;;;;;;;5034768;28;20816;-79
2021/09/07 10:29:07;;;;;;;15.40;13.80;;;;;;;;;;5036296;28;20405;-79
2021/09/07 10:31:39;;;;;;;15.03;13.37;;;;;;;;;;5036590;28;20510;-77
2021/09/07 10:34:06;;;;;;;16.60;14.80;;;;;;;;;;5036727;28;20496;-79
2021/09/07 10:36:35;;;;;;;16.17;14.53;;;;;;;;;;5036768;28;20487;-80
2021/09/07 10:39:02;;;;;;;15.07;13.63;;;;;;;;;;5036068;28;20421;-78
2021/09/07 10:41:35;;;;;;;14.90;13.00;;;;;;;;;;5036551;28;20397;-78
2021/09/07 10:44:08;;;;;;;17.33;14.03;;;;;;;;;;5036321;28;20444;-78
2021/09/07 10:47:06;;;;;;;16.30;12.50;;;;;;;;;;5036313;28;20811;-79
2021/09/07 10:49:33;;;;;;;15.07;11.83;;;;;;;;;;4982064;28;20782;-79
2021/09/07 10:52:05;;;;;;;14.73;13.30;;;;;;;;;;5036196;28;20411;-78
2021/09/07 10:54:31;;;;;;;14.10;12.70;;;;;;;;;;5036166;28;20405;-79
2021/09/07 10:56:59;;;;;;;12.73;11.43;;;;;;;;;;5036149;28;20417;-78
2021/09/07 10:59:44;;;;;;;14.67;13.17;;;;;;;;;;5035638;28;20467;-77
2021/09/07 11:02:29;;;;;;;15.40;13.80;;;;;;;;;;5035896;28;20495;-78
2021/09/07 11:04:54;;;;;;;14.70;13.30;;;;;;;;;;5035966;28;20417;-79
2021/09/07 11:07:40;;;;;;;13.93;12.50;;;;;;;;;;5035966;28;20421;-79
2021/09/07 11:10:07;;;;;;;13.40;12.00;;;;;;;;;;5035317;28;20471;-79
2021/09/07 11:12:33;;;;;;;14.87;13.50;;;;;;;;;;5035789;28;20401;-78
2021/09/07 11:15:01;;;;;;;14.57;12.30;;;;;;;;;;5036112;28;20497;-78
2021/09/07 11:17:27;;;;;;;13.43;12.07;;;;;;;;;;5036049;28;20416;-78
2021/09/07 11:20:03;;;;;;;14.50;13.00;;;;;;;;;;5035239;28;20794;-78
2021/09/07 11:22:30;;;;;;;15.37;13.77;;;;;;;;;;5035915;28;20455;-78
2021/09/07 11:25:03;;;;;;;14.87;13.27;;;;;;;;;;5035719;28;20417;-77
2021/09/07 11:27:47;;;;;;;13.07;11.73;;;;;;;;;;5035685;28;20752;-77
2021/09/07 11:30:39;;;;;;;15.60;13.53;;;;;;;;;;5035056;28;20463;-80
2021/09/07 11:33:08;;;;;;;12.67;11.27;;;;;;;;;;5031155;28;20445;-77
2021/09/07 11:35:36;;;;;;;12.63;11.33;;;;;;;;;;5017598;28;20416;-79
2021/09/07 11:38:03;;;;;;;11.77;10.70;;;;;;;;;;5034661;28;20409;-78
2021/09/07 11:40:31;;;;;;;12.73;11.27;;;;;;;;;;5034759;28;20455;-79
2021/09/07 11:42:57;;;;;;;13.57;10.47;;;;;;;;;;5035487;28;20916;-79
2021/09/07 11:45:23;;;;;;;14.07;9.60;;;;;;;;;;5017716;28;20413;-80
2021/09/07 11:47:49;;;;;;;12.50;10.60;;;;;;;;;;5035196;28;20413;-80
2021/09/07 11:50:16;;;;;;;10.07;9.07;;;;;;;;;;5016812;28;20600;-79
2021/09/07 11:52:44;;;;;;;9.77;8.83;;;;;;;;;;5035020;28;20768;-77
2021/09/07 11:55:29;;;;;;;12.90;11.00;;;;;;;;;;5017349;28;20937;-79
2021/09/07 11:57:55;;;;;;;11.27;10.07;;;;;;;;;;5035025;28;20741;-79
2021/09/07 12:00:21;;;;;;;11.20;9.83;;;;;;;;;;5034351;28;20523;-76
2021/09/07 12:02:47;;;;;;;15.43;10.37;;;;;;;;;;5016987;28;20443;-78
2021/09/07 12:05:13;;;;;;;10.20;9.20;;;;;;;;;;5034882;28;20421;-79
2021/09/07 12:07:53;;;;;;;9.70;8.67;;;;;;;;;;5017011;28;20922;-77
2021/09/07 12:10:19;;;;;;;8.40;7.57;;;;;;;;;;5034096;28;20470;-77
2021/09/07 12:12:45;;;;;;;8.53;7.73;;;;;;;;;;5034455;28;20504;-78
2021/09/07 12:15:17;;;;;;;9.90;8.07;;;;;;;;;;5034705;28;20407;-77
2021/09/07 12:17:45;;;;;;;9.93;8.93;;;;;;;;;;5034604;28;20405;-78
2021/09/07 12:20:14;;;;;;;8.47;7.67;;;;;;;;;;5034221;28;20544;-80
2021/09/07 12:22:41;;;;;;;8.30;6.17;;;;;;;;;;5034386;28;20428;-79
2021/09/07 12:25:12;;;;;;;8.30;7.50;;;;;;;;;;5034336;28;20420;-79
2021/09/07 12:27:41;;;;;;;9.37;8.57;;;;;;;;;;5034358;28;20405;-79
2021/09/07 12:30:07;;;;;;;8.70;7.80;;;;;;;;;;5034091;28;20857;-79
2021/09/07 12:32:44;;;;;;;9.10;7.83;;;;;;;;;;5016530;28;20401;-77
2021/09/07 12:35:10;;;;;;;7.70;6.30;;;;;;;;;;5034657;28;20409;-78
2021/09/07 12:37:36;;;;;;;9.73;7.27;;;;;;;;;;5016596;28;20507;-79
2021/09/07 12:40:02;;;;;;;9.40;8.20;;;;;;;;;;5033723;28;20547;-78
2021/09/07 12:42:28;;;;;;;7.90;7.20;;;;;;;;;;5034107;28;20419;-75
2021/09/07 12:44:54;;;;;;;8.03;7.20;;;;;;;;;;5034009;28;20497;-80
2021/09/07 12:47:20;;;;;;;9.80;7.90;;;;;;;;;;5016686;28;20467;-78
2021/09/07 12:49:46;;;;;;;10.20;8.00;;;;;;;;;;5014947;28;20945;-79
2021/09/07 12:52:12;;;;;;;8.53;7.73;;;;;;;;;;5033970;28;20443;-80
2021/09/07 12:54:38;;;;;;;7.93;7.13;;;;;;;;;;5033916;28;20417;-80
2021/09/07 12:57:04;;;;;;;9.20;7.13;;;;;;;;;;5033830;28;20421;-78
2021/09/07 12:59:30;;;;;;;8.20;7.27;;;;;;;;;;5033421;28;20783;-77
2021/09/07 13:01:56;;;;;;;9.13;7.17;;;;;;;;;;5033792;28;20413;-76
2021/09/07 13:04:22;;;;;;;8.67;7.70;;;;;;;;;;5033724;28;20425;-79
2021/09/07 13:06:50;;;;;;;8.67;7.30;;;;;;;;;;5033529;28;20420;-79
2021/09/07 13:09:16;;;;;;;8.20;7.13;;;;;;;;;;5033215;28;20436;-79
2021/09/07 13:11:42;;;;;;;6.97;6.37;;;;;;;;;;5033597;28;20460;-79
2021/09/07 13:14:08;;;;;;;7.80;7.10;;;;;;;;;;5033794;28;20444;-78
2021/09/07 13:16:34;;;;;;;7.87;7.17;;;;;;;;;;5033627;28;20417;-75
2021/09/07 13:19:00;;;;;;;6.93;6.33;;;;;;;;;;5015612;28;20531;-76
2021/09/07 13:21:28;;;;;;;7.10;6.40;;;;;;;;;;5033791;28;20452;-79
2021/09/07 13:23:54;;;;;;;7.57;6.33;;;;;;;;;;5033600;28;20421;-76
2021/09/07 13:26:20;;;;;;;5.53;4.97;;;;;;;;;;5033613;28;20405;-81
2021/09/07 13:28:46;;;;;;;6.87;6.27;;;;;;;;;;5033044;28;20417;-77
2021/09/07 13:31:12;;;;;;;5.00;4.50;;;;;;;;;;5033347;28;20469;-76
2021/09/07 13:33:38;;;;;;;7.40;6.70;;;;;;;;;;5033504;28;20405;-76
2021/09/07 13:36:05;;;;;;;6.77;6.07;;;;;;;;;;5033234;28;20424;-78
2021/09/07 13:38:31;;;;;;;6.60;5.90;;;;;;;;;;5032991;28;20409;-77
2021/09/07 13:40:57;;;;;;;7.00;5.90;;;;;;;;;;5015438;28;20441;-78
2021/09/07 13:43:23;;;;;;;7.50;6.80;;;;;;;;;;5033149;28;20413;-79
2021/09/07 13:45:49;;;;;;;7.80;7.10;;;;;;;;;;5033237;28;20765;-81
2021/09/07 13:48:15;;;;;;;7.10;6.43;;;;;;;;;;5033296;28;20923;-79
2021/09/07 13:50:41;;;;;;;9.37;6.77;;;;;;;;;;5032538;28;20460;-77
2021/09/07 13:53:07;;;;;;;7.20;6.47;;;;;;;;;;5033072;28;20401;-76
2021/09/07 13:55:33;;;;;;;7.70;6.70;;;;;;;;;;5033002;28;20444;-77
2021/09/07 13:57:59;;;;;;;9.27;6.87;;;;;;;;;;5033138;28;20452;-78
2021/09/07 14:00:25;;;;;;;8.23;7.43;;;;;;;;;;5032746;28;20464;-77
2021/09/07 14:02:51;;;;;;;6.90;6.40;;;;;;;;;;5019697;28;20420;-77
2021/09/07 14:05:17;;;;;;;7.37;6.77;;;;;;;;;;5036927;28;20487;-78
2021/09/07 14:07:43;;;;;;;10.10;7.33;;;;;;;;;;5037064;28;20827;-77
2021/09/07 14:10:11;;;;;;;13.27;7.30;;;;;;;;;;5036462;28;20461;-78
2021/09/07 14:12:37;;;;;;;7.67;6.87;;;;;;;;;;5036966;28;20412;-76
2021/09/07 14:15:03;;;;;;;8.30;7.17;;;;;;;;;;5037122;28;20409;-77
2021/09/07 14:17:29;;;;;;;13.03;7.83;;;;;;;;;;5019355;28;20413;-76
2021/09/07 14:19:58;;;;;;;7.37;6.67;;;;;;;;;;5018821;28;20535;-77
2021/09/07 14:22:24;;;;;;;11.03;7.50;;;;;;;;;;5036728;28;20416;-77